Time;durP1;ratioP1;P1;durP2;ratioP2;P2;SDS_P1;SDS_P2;PMS_P1;PMS_P2;Temp;Humidity;BMP_temperature;BMP_pressure;BME280_temperature;BME280_humidity;BME280_pressure;Samples;Min_cycle;Max_cycle;Signal;HPM_P1;HPM_P2
2023/05/14 00:01:30;;;;;;;25.10;13.38;;;;;;;-146.27;94.08;82978.84;5045430;28;20037;-68
2023/05/14 00:03:55;;;;;;;20.83;12.65;;;;;;;-146.27;94.32;83002.94;5045220;28;20033;-68
2023/05/14 00:06:20;;;;;;;21.83;12.13;;;;;;;-146.27;94.67;83004.94;5033536;28;20337;-68
2023/05/14 00:08:46;;;;;;;22.60;12.77;;;;;;;-146.27;94.20;83035.09;5043183;28;20194;-68
2023/05/14 00:11:11;;;;;;;21.13;12.45;;;;;;;-146.27;94.66;82970.81;5061978;28;20128;-68
2023/05/14 00:13:36;;;;;;;20.48;12.25;;;;;;;-146.27;94.80;83006.97;5051638;28;20048;-67
2023/05/14 00:16:02;;;;;;;24.02;12.57;;;;;;;-146.27;94.14;82998.94;5051535;28;20028;-67
2023/05/14 00:18:27;;;;;;;22.05;13.18;;;;;;;-146.27;94.86;82998.94;5034303;28;20041;-67
2023/05/14 00:20:53;;;;;;;18.80;12.60;;;;;;;-146.27;94.83;83035.09;5048288;28;20043;-68
2023/05/14 00:23:22;;;;;;;22.48;13.32;;;;;;;-146.27;94.75;83019.03;5052691;28;20380;-68
2023/05/14 00:25:48;;;;;;;21.73;13.05;;;;;;;-146.27;95.30;83035.09;5050225;28;20021;-68
2023/05/14 00:28:13;;;;;;;23.13;13.70;;;;;;;-146.27;94.32;83027.06;5033284;28;20044;-67
2023/05/14 00:30:39;;;;;;;20.48;13.00;;;;;;;-146.27;94.51;83035.09;5059657;28;20476;-68
2023/05/14 00:33:05;;;;;;;18.83;12.40;;;;;;;-146.27;94.77;83065.22;5037388;28;20090;-68
2023/05/14 00:35:30;;;;;;;22.90;13.38;;;;;;;-146.27;94.64;83059.19;5062243;28;20036;-68
2023/05/14 00:37:55;;;;;;;20.38;13.07;;;;;;;-146.27;94.68;83057.19;5035242;28;20028;-67
2023/05/14 00:40:25;;;;;;;24.80;12.90;;;;;;;-146.27;95.54;83057.19;5047523;28;20129;-66
2023/05/14 00:42:51;;;;;;;19.52;13.48;;;;;;;-146.27;95.05;83059.19;5036862;28;20041;-69
2023/05/14 00:45:16;;;;;;;20.45;13.32;;;;;;;-146.27;95.85;83039.09;5036733;28;20506;-67
2023/05/14 00:47:42;;;;;;;19.77;12.43;;;;;;;-146.27;94.87;83045.13;5041409;28;20535;-67
2023/05/14 00:50:08;;;;;;;22.48;13.88;;;;;;;-146.27;95.29;83033.09;5045257;28;20037;-68
2023/05/14 00:52:36;;;;;;;21.98;12.75;;;;;;;-146.27;95.17;83071.25;5048749;28;20041;-68
2023/05/14 00:55:06;;;;;;;18.45;13.05;;;;;;;-146.27;94.51;83051.16;5050357;28;20556;-69
2023/05/14 00:57:32;;;;;;;26.95;14.13;;;;;;;-146.27;95.74;83033.09;5051614;28;20021;-66
2023/05/14 00:59:58;;;;;;;21.45;13.60;;;;;;;-146.27;94.76;83105.41;5041400;28;20060;-66
2023/05/14 01:02:23;;;;;;;25.60;13.63;;;;;;;-146.27;94.91;83073.25;5036867;28;20064;-68
2023/05/14 01:04:50;;;;;;;22.58;12.82;;;;;;;-146.27;95.27;83041.13;5032550;28;20026;-69
2023/05/14 01:07:43;;;;;;;22.88;13.60;;;;;;;-146.27;95.47;83063.22;5035813;28;20120;-68
2023/05/14 01:10:41;;;;;;;19.33;11.52;;;;;;;-146.27;95.90;83039.09;5062097;28;20051;-68
2023/05/14 01:13:09;;;;;;;21.38;12.82;;;;;;;-146.27;95.39;83083.31;5063380;28;20467;-68
2023/05/14 01:15:36;;;;;;;22.20;12.52;;;;;;;-146.27;95.60;83037.09;5063438;28;20040;-68
2023/05/14 01:18:09;;;;;;;22.13;13.25;;;;;;;-146.27;96.05;83077.28;5057604;28;20028;-68
2023/05/14 01:20:35;;;;;;;25.55;13.93;;;;;;;-146.27;95.14;83033.09;5036589;28;20082;-68
2023/05/14 01:23:00;;;;;;;28.95;13.75;;;;;;;-146.27;95.18;83065.22;5031008;28;20389;-68
2023/05/14 01:25:26;;;;;;;19.58;11.57;;;;;;;-146.27;95.71;83071.25;5034305;28;20152;-68
2023/05/14 01:28:10;;;;;;;22.30;13.32;;;;;;;-146.27;96.30;83067.25;5055351;28;20036;-68
2023/05/14 01:30:48;;;;;;;17.92;12.35;;;;;;;-146.27;95.64;83099.38;5051563;28;20089;-68
2023/05/14 01:33:17;;;;;;;21.42;12.40;;;;;;;-146.27;96.20;83101.38;5033496;28;20037;-68
2023/05/14 01:35:43;;;;;;;24.23;13.68;;;;;;;-146.27;96.35;83109.44;5044284;28;20040;-68
2023/05/14 01:38:12;;;;;;;22.30;12.57;;;;;;;-146.27;96.30;83111.44;5044381;28;20564;-68
2023/05/14 01:40:38;;;;;;;22.80;14.00;;;;;;;-146.27;96.52;83167.69;5036949;28;20025;-68
2023/05/14 01:43:04;;;;;;;25.38;14.63;;;;;;;-146.27;97.14;83139.56;5030705;28;20022;-68
2023/05/14 01:45:30;;;;;;;23.50;14.68;;;;;;;-146.27;97.43;83151.63;5041463;28;20377;-68
2023/05/14 01:47:56;;;;;;;20.80;14.45;;;;;;;-146.27;98.51;83163.69;5046520;28;20029;-68
2023/05/14 01:50:21;;;;;;;24.13;14.30;;;;;;;-146.27;98.20;83139.56;5048706;28;20111;-68
2023/05/14 01:52:47;;;;;;;26.27;13.82;;;;;;;-146.27;97.34;83135.53;5042006;28;20056;-68
2023/05/14 01:55:14;;;;;;;22.15;14.65;;;;;;;-146.27;97.90;83189.78;5039353;28;20503;-67
2023/05/14 01:57:39;;;;;;;28.65;16.25;;;;;;;-146.27;98.83;83183.78;5051247;28;20029;-68
2023/05/14 02:00:05;;;;;;;24.42;14.50;;;;;;;-146.27;97.92;83203.88;5050853;28;20054;-68
2023/05/14 02:02:30;;;;;;;26.77;15.15;;;;;;;-146.27;99.45;83203.88;5037572;28;20029;-68
2023/05/14 02:04:56;;;;;;;26.08;14.73;;;;;;;-146.27;98.45;83179.75;5030201;28;20075;-68
2023/05/14 02:07:21;;;;;;;28.90;15.60;;;;;;;-146.27;100.00;83137.56;5045788;28;20393;-68
2023/05/14 02:09:46;;;;;;;25.50;15.85;;;;;;;-146.27;100.00;83141.56;5039658;28;20506;-68
2023/05/14 02:12:12;;;;;;;24.88;15.45;;;;;;;-146.27;99.59;83197.84;5042687;28;20037;-68
2023/05/14 02:14:37;;;;;;;31.17;15.57;;;;;;;-146.27;99.04;83169.69;5048556;28;20033;-68
2023/05/14 02:17:03;;;;;;;28.85;15.90;;;;;;;-146.27;98.44;83167.69;5043138;28;20468;-69
2023/05/14 02:19:29;;;;;;;27.40;16.98;;;;;;;-146.27;98.64;83183.78;5035332;28;20391;-68
2023/05/14 02:21:54;;;;;;;31.75;17.35;;;;;;;-146.27;98.64;83183.78;5039924;28;20109;-68
2023/05/14 02:24:20;;;;;;;28.42;16.20;;;;;;;-146.27;98.92;83183.78;5044700;28;20465;-68
2023/05/14 02:26:45;;;;;;;40.15;17.52;;;;;;;-146.27;98.99;83195.81;5038575;28;20029;-68
2023/05/14 02:29:11;;;;;;;32.03;18.58;;;;;;;-146.27;99.03;83193.81;5038643;28;20025;-68
2023/05/14 02:31:36;;;;;;;37.95;19.35;;;;;;;-146.27;98.60;83207.88;5045288;28;20108;-67
2023/05/14 02:34:02;;;;;;;32.15;17.63;;;;;;;-146.27;99.72;83195.81;5048397;28;20389;-68
2023/05/14 02:36:28;;;;;;;35.38;18.02;;;;;;;-146.27;100.00;83185.78;5036298;28;20022;-68
2023/05/14 02:38:53;;;;;;;37.05;18.30;;;;;;;-146.27;99.88;83225.97;5035181;28;20029;-69
2023/05/14 02:41:18;;;;;;;31.60;18.45;;;;;;;-146.27;100.00;83244.03;5037940;28;20063;-69
2023/05/14 02:43:44;;;;;;;32.47;17.25;;;;;;;-146.27;100.00;83234.00;5042056;28;20017;-68
2023/05/14 02:46:09;;;;;;;29.85;17.98;;;;;;;-146.27;100.00;83262.13;5036904;28;20080;-69
2023/05/14 02:48:34;;;;;;;37.15;18.25;;;;;;;-146.27;100.00;83260.13;5045069;28;20048;-68
2023/05/14 02:51:01;;;;;;;32.83;18.42;;;;;;;-146.27;100.00;83240.03;5040771;28;20022;-67
2023/05/14 02:53:26;;;;;;;29.02;17.42;;;;;;;-146.27;100.00;83256.09;5049723;28;20463;-67
2023/05/14 02:55:51;;;;;;;32.38;17.67;;;;;;;-146.27;100.00;83219.94;5054637;28;20024;-70
2023/05/14 02:58:18;;;;;;;31.23;17.58;;;;;;;-146.27;100.00;83260.13;5048826;28;20082;-68
2023/05/14 03:00:43;;;;;;;35.70;19.05;;;;;;;-146.27;100.00;83248.06;5049385;28;20509;-67
2023/05/14 03:03:09;;;;;;;29.40;18.25;;;;;;;-146.27;100.00;83280.22;5049238;28;20020;-68
2023/05/14 03:05:34;;;;;;;33.25;19.17;;;;;;;-146.27;100.00;83223.94;5038664;28;20539;-68
2023/05/14 03:08:00;;;;;;;30.50;18.52;;;;;;;-146.27;100.00;83254.09;5046101;28;20065;-68
2023/05/14 03:10:25;;;;;;;31.95;18.75;;;;;;;-146.27;100.00;83284.22;5042080;28;20504;-68
2023/05/14 03:12:50;;;;;;;33.08;18.92;;;;;;;-146.27;100.00;83276.19;5036555;28;20065;-68
2023/05/14 03:15:16;;;;;;;40.67;18.65;;;;;;;-146.27;100.00;83270.16;5045221;28;20074;-67
2023/05/14 03:17:41;;;;;;;35.70;18.63;;;;;;;-146.27;100.00;83290.25;5039964;28;20020;-67
2023/05/14 03:20:07;;;;;;;32.92;17.52;;;;;;;-146.27;100.00;83227.97;5046648;28;20025;-68
2023/05/14 03:22:32;;;;;;;31.60;17.13;;;;;;;-146.27;100.00;83284.22;5042951;28;20026;-68
2023/05/14 03:24:58;;;;;;;31.40;19.00;;;;;;;-146.27;100.00;83286.25;5035791;28;20025;-68
2023/05/14 03:27:23;;;;;;;28.85;18.33;;;;;;;-146.27;100.00;83258.13;5052731;28;20279;-68
2023/05/14 03:29:48;;;;;;;27.52;18.20;;;;;;;-146.27;100.00;83280.22;5042399;28;20053;-68
2023/05/14 03:32:14;;;;;;;36.60;17.95;;;;;;;-146.27;100.00;83256.09;5041930;28;20058;-69
2023/05/14 03:34:39;;;;;;;26.88;18.15;;;;;;;-146.27;100.00;83282.22;5051996;28;20684;-68
2023/05/14 03:37:05;;;;;;;33.28;18.45;;;;;;;-146.27;100.00;83280.22;5046899;28;20029;-69
2023/05/14 03:39:30;;;;;;;31.95;18.92;;;;;;;-146.27;100.00;83318.38;5064562;28;20382;-68
2023/05/14 03:41:57;;;;;;;30.70;18.67;;;;;;;-146.27;100.00;83306.34;5056016;28;20078;-68
2023/05/14 03:44:23;;;;;;;37.58;19.52;;;;;;;-146.27;100.00;83398.75;5047377;28;20537;-68
2023/05/14 03:46:48;;;;;;;37.50;21.00;;;;;;;-146.27;100.00;83284.22;5042745;28;20140;-69
2023/05/14 03:49:13;;;;;;;32.10;19.70;;;;;;;-146.27;100.00;83344.50;5057688;28;20021;-68
2023/05/14 03:51:39;;;;;;;32.55;19.50;;;;;;;-146.27;100.00;83324.41;5040474;28;20020;-68
2023/05/14 03:54:05;;;;;;;37.22;19.52;;;;;;;-146.27;100.00;83328.44;5052802;28;20021;-69
2023/05/14 03:56:31;;;;;;;36.53;19.40;;;;;;;-146.27;100.00;83360.59;5049920;28;20021;-68
2023/05/14 03:58:56;;;;;;;31.85;18.48;;;;;;;-146.27;100.00;83300.31;5048806;28;20033;-68
2023/05/14 04:01:21;;;;;;;36.75;18.95;;;;;;;-146.27;100.00;83306.34;5042816;28;20022;-68
2023/05/14 04:03:47;;;;;;;28.05;17.13;;;;;;;-146.27;100.00;83304.31;5050736;28;20020;-68
2023/05/14 04:06:12;;;;;;;28.02;17.92;;;;;;;-146.27;100.00;83292.28;5037662;28;20444;-69
2023/05/14 04:08:37;;;;;;;27.77;17.77;;;;;;;-146.27;100.00;83306.34;5032835;28;20037;-69
2023/05/14 04:11:03;;;;;;;31.25;18.13;;;;;;;-146.27;100.00;83240.03;5046584;28;20099;-68
2023/05/14 04:13:29;;;;;;;31.20;16.73;;;;;;;-146.27;100.00;83308.34;5038896;28;20377;-67
2023/05/14 04:15:54;;;;;;;29.48;16.50;;;;;;;-146.27;100.00;83324.41;5035801;28;20465;-68
2023/05/14 04:18:19;;;;;;;25.65;16.20;;;;;;;-146.27;100.00;83348.53;5048956;28;20041;-68
2023/05/14 04:20:45;;;;;;;27.80;16.60;;;;;;;-146.27;100.00;83296.28;5043382;28;20068;-67
2023/05/14 04:23:11;;;;;;;34.78;16.88;;;;;;;-146.27;100.00;83282.22;5050732;28;20489;-67
2023/05/14 04:25:36;;;;;;;33.13;17.23;;;;;;;-146.27;100.00;83286.25;5045977;28;20028;-67
2023/05/14 04:28:02;;;;;;;27.08;15.50;;;;;;;-146.27;100.00;83296.28;5051695;28;20029;-67
2023/05/14 04:30:27;;;;;;;25.92;15.77;;;;;;;-146.27;100.00;83284.22;5051883;28;20057;-67
2023/05/14 04:32:53;;;;;;;34.47;17.25;;;;;;;-146.27;100.00;83280.22;5040602;28;20022;-67
2023/05/14 04:35:19;;;;;;;28.13;16.83;;;;;;;-146.27;100.00;83274.19;5041294;28;20380;-67
2023/05/14 04:37:44;;;;;;;31.33;15.65;;;;;;;-146.27;100.00;83276.19;5044196;28;20029;-68
2023/05/14 04:40:11;;;;;;;29.63;16.77;;;;;;;-146.27;100.00;83223.94;5050616;28;20434;-68
2023/05/14 04:42:36;;;;;;;33.15;17.50;;;;;;;-146.27;100.00;83236.00;5033226;28;20088;-68
2023/05/14 04:45:04;;;;;;;32.10;17.38;;;;;;;-146.27;100.00;83264.13;5041829;28;20032;-66
2023/05/14 04:47:29;;;;;;;29.15;17.67;;;;;;;-146.27;100.00;83236.00;5039216;28;20112;-69
2023/05/14 04:49:55;;;;;;;28.75;17.55;;;;;;;-146.27;100.00;83215.91;5031855;28;20396;-69
2023/05/14 04:52:20;;;;;;;29.00;17.08;;;;;;;-146.27;100.00;83240.03;5044452;28;20123;-69
2023/05/14 04:54:46;;;;;;;27.30;16.35;;;;;;;-146.27;100.00;83229.97;5052779;28;20424;-68
2023/05/14 04:57:11;;;;;;;30.83;17.15;;;;;;;-146.27;100.00;83236.00;5032122;28;20474;-69
2023/05/14 04:59:36;;;;;;;29.13;15.50;;;;;;;-146.27;100.00;83209.88;5035094;28;20490;-68
2023/05/14 05:02:02;;;;;;;29.20;15.55;;;;;;;-146.27;100.00;83205.88;5046625;28;20021;-67
2023/05/14 05:04:27;;;;;;;25.98;15.05;;;;;;;-146.27;100.00;83191.81;5043595;28;20017;-68
2023/05/14 05:06:52;;;;;;;26.35;15.70;;;;;;;-146.27;100.00;83227.97;5038138;28;20133;-68
2023/05/14 05:09:18;;;;;;;27.75;15.40;;;;;;;-146.27;100.00;83236.00;5043728;28;20079;-68
2023/05/14 05:11:43;;;;;;;28.38;16.42;;;;;;;-146.27;100.00;83248.06;5051217;28;20025;-68
2023/05/14 05:14:08;;;;;;;31.10;16.92;;;;;;;-146.27;100.00;83236.00;5049328;28;20112;-67
2023/05/14 05:16:34;;;;;;;25.42;15.50;;;;;;;-146.27;100.00;83203.88;5038813;28;20508;-68
2023/05/14 05:18:59;;;;;;;32.80;18.05;;;;;;;-146.27;100.00;83215.91;5045056;28;20028;-68
2023/05/14 05:21:25;;;;;;;30.83;16.80;;;;;;;-146.27;100.00;83177.75;5041785;28;20028;-68
2023/05/14 05:23:50;;;;;;;30.60;17.10;;;;;;;-146.27;100.00;83207.88;5060538;28;20074;-69
2023/05/14 05:26:15;;;;;;;29.38;17.10;;;;;;;-146.27;100.00;83191.81;5043279;28;20123;-69
2023/05/14 05:28:41;;;;;;;33.70;17.92;;;;;;;-146.27;100.00;83223.94;5047165;28;20056;-68
2023/05/14 05:31:06;;;;;;;32.47;18.75;;;;;;;-146.27;100.00;83211.91;5050447;28;20055;-69
2023/05/14 05:33:33;;;;;;;32.25;18.45;;;;;;;-146.27;100.00;83229.97;5051972;28;20029;-68
2023/05/14 05:35:59;;;;;;;36.33;18.08;;;;;;;-146.27;100.00;83215.91;5059627;28;20389;-68
2023/05/14 05:38:24;;;;;;;31.27;18.80;;;;;;;-146.27;100.00;83232.00;5041014;28;20025;-68
2023/05/14 05:40:49;;;;;;;45.22;21.15;;;;;;;-146.27;100.00;83232.00;5064793;28;20065;-68
2023/05/14 05:43:15;;;;;;;40.47;19.90;;;;;;;-146.27;100.00;83227.97;5050747;28;20021;-68
2023/05/14 05:45:40;;;;;;;36.40;20.35;;;;;;;-146.27;100.00;83167.69;5048963;28;20028;-68
2023/05/14 05:48:06;;;;;;;44.83;22.70;;;;;;;-146.27;100.00;83209.88;5050579;28;20500;-68
2023/05/14 05:50:31;;;;;;;42.25;21.30;;;;;;;-146.27;100.00;83199.84;5049154;28;20469;-68
2023/05/14 05:52:58;;;;;;;46.30;23.38;;;;;;;-146.27;100.00;83248.06;5046898;28;20051;-69
2023/05/14 05:55:24;;;;;;;42.40;22.42;;;;;;;-146.27;100.00;83205.88;5058430;28;20029;-69
2023/05/14 05:57:49;;;;;;;47.13;24.63;;;;;;;-146.27;100.00;83201.84;5041870;28;20063;-69
2023/05/14 06:00:15;;;;;;;48.35;24.13;;;;;;;-146.27;100.00;83240.03;5044620;28;20119;-68
2023/05/14 06:02:42;;;;;;;50.72;24.08;;;;;;;-146.27;100.00;83185.78;5037855;28;21234;-69
2023/05/14 06:05:08;;;;;;;45.38;23.27;;;;;;;-146.27;100.00;83175.72;5032737;28;20025;-69
2023/05/14 06:07:34;;;;;;;49.90;23.00;;;;;;;-146.27;100.00;83203.88;5035522;28;20022;-69
2023/05/14 06:09:59;;;;;;;39.53;22.23;;;;;;;-146.27;100.00;83149.63;5030490;28;20390;-68
2023/05/14 06:12:25;;;;;;;44.25;22.83;;;;;;;-146.27;100.00;83211.91;5038448;28;20092;-68
2023/05/14 06:14:50;;;;;;;46.95;25.08;;;;;;;-146.27;100.00;83139.56;5057718;28;20035;-68
2023/05/14 06:17:16;;;;;;;39.92;22.05;;;;;;;-146.27;100.00;83175.72;5045348;28;20112;-68
2023/05/14 06:19:41;;;;;;;42.65;21.67;;;;;;;-146.27;100.00;83155.63;5045325;28;20021;-68
2023/05/14 06:22:06;;;;;;;40.85;21.95;;;;;;;-146.27;100.00;83103.41;5037338;28;20025;-68
2023/05/14 06:24:32;;;;;;;40.47;22.20;;;;;;;-146.27;100.00;83085.31;5043758;28;20029;-68
2023/05/14 06:26:57;;;;;;;39.22;22.45;;;;;;;-146.27;100.00;83111.44;5050031;28;20021;-68
2023/05/14 06:29:24;;;;;;;38.22;20.33;;;;;;;-146.27;100.00;83095.38;5039028;28;20028;-68
2023/05/14 06:31:49;;;;;;;37.72;20.83;;;;;;;-146.27;100.00;83103.41;5038871;28;20061;-68
2023/05/14 06:34:15;;;;;;;31.73;19.70;;;;;;;-146.27;100.00;83073.25;5046494;28;20511;-68
2023/05/14 06:36:40;;;;;;;37.55;20.35;;;;;;;-146.27;100.00;83087.31;5039796;28;20128;-67
2023/05/14 06:39:05;;;;;;;35.03;19.52;;;;;;;-146.27;100.00;83045.13;5035216;28;20029;-69
2023/05/14 06:41:31;;;;;;;36.00;20.77;;;;;;;-146.27;100.00;83039.09;5053604;28;20028;-69
2023/05/14 06:43:56;;;;;;;36.65;20.20;;;;;;;-146.27;100.00;83051.16;5040230;28;20123;-68
2023/05/14 06:46:22;;;;;;;32.13;18.65;;;;;;;-146.27;100.00;83037.09;5047019;28;20071;-69
2023/05/14 06:48:47;;;;;;;27.98;17.95;;;;;;;-146.27;100.00;82994.91;5050263;28;20029;-68
2023/05/14 06:51:15;;;;;;;30.85;18.30;;;;;;;-146.27;100.00;82998.94;5039706;28;20037;-67
2023/05/14 06:53:41;;;;;;;28.70;18.02;;;;;;;-146.27;100.00;83023.03;5041548;28;20155;-69
2023/05/14 06:56:06;;;;;;;32.90;19.23;;;;;;;-146.27;100.00;82946.69;5041960;28;20036;-68
2023/05/14 06:58:32;;;;;;;36.95;20.00;;;;;;;-146.27;100.00;83027.06;5053661;28;20103;-68
2023/05/14 07:00:57;;;;;;;32.95;20.08;;;;;;;-146.27;100.00;83033.09;5044762;28;20112;-69
2023/05/14 07:03:23;;;;;;;28.27;18.40;;;;;;;-146.27;100.00;82984.88;5053512;28;20237;-69
2023/05/14 07:05:48;;;;;;;32.53;20.40;;;;;;;-146.27;100.00;83031.06;5044759;28;20021;-69
2023/05/14 07:08:14;;;;;;;30.33;18.75;;;;;;;-146.27;100.00;83015.00;5047317;28;20037;-67
2023/05/14 07:10:39;;;;;;;30.13;18.30;;;;;;;-146.27;100.00;83006.97;5044863;28;20086;-67
2023/05/14 07:13:05;;;;;;;33.60;19.45;;;;;;;-146.27;100.00;82990.88;5051137;28;20037;-68
2023/05/14 07:15:30;;;;;;;29.80;18.40;;;;;;;-146.27;100.00;82992.91;5039613;28;20473;-71
2023/05/14 07:17:55;;;;;;;23.73;16.60;;;;;;;-146.27;100.00;83004.94;5049333;28;20079;-70
2023/05/14 07:20:22;;;;;;;33.42;18.35;;;;;;;-146.27;100.00;83008.97;5041016;28;20020;-70
2023/05/14 07:22:48;;;;;;;31.52;18.40;;;;;;;-146.27;100.00;82980.84;5039355;28;20496;-69
2023/05/14 07:25:13;;;;;;;27.67;16.80;;;;;;;-146.27;100.00;82998.94;5060869;28;20032;-69
2023/05/14 07:27:39;;;;;;;27.83;17.65;;;;;;;-146.27;100.00;82982.84;5042667;28;20035;-69
2023/05/14 07:30:06;;;;;;;31.58;19.08;;;;;;;-146.27;100.00;82974.81;5049034;28;20024;-69
2023/05/14 07:32:31;;;;;;;30.50;18.90;;;;;;;-146.27;100.00;82994.91;5049500;28;20036;-70
2023/05/14 07:34:56;;;;;;;30.95;19.33;;;;;;;-146.27;100.00;82962.75;5048360;28;20029;-70
2023/05/14 07:37:24;;;;;;;38.35;19.33;;;;;;;-146.27;100.00;82930.63;5054460;28;20021;-69
2023/05/14 07:39:50;;;;;;;33.83;21.05;;;;;;;-146.27;100.00;82906.50;5060034;28;20025;-69
2023/05/14 07:42:15;;;;;;;37.35;19.23;;;;;;;-146.27;100.00;82968.78;5045388;28;20506;-70
2023/05/14 07:44:40;;;;;;;35.80;20.17;;;;;;;-146.27;100.00;82918.56;5046827;28;20112;-68
2023/05/14 07:47:07;;;;;;;33.60;19.05;;;;;;;-146.27;100.00;82906.50;5050895;28;20021;-69
2023/05/14 07:49:32;;;;;;;37.25;17.67;;;;;;;-146.27;100.00;82866.31;5045474;28;20108;-69
2023/05/14 07:51:58;;;;;;;34.50;16.25;;;;;;;-146.27;100.00;82848.25;5048706;28;20403;-69
2023/05/14 07:54:23;;;;;;;23.45;14.50;;;;;;;-146.27;100.00;82800.03;5046085;28;20028;-69
2023/05/14 07:56:48;;;;;;;24.20;12.45;;;;;;;-146.27;100.00;82800.03;5038608;28;20025;-70
2023/05/14 07:59:15;;;;;;;19.85;11.43;;;;;;;-146.27;100.00;82749.81;5048821;28;20016;-69
2023/05/14 08:01:40;;;;;;;18.48;11.10;;;;;;;-146.27;99.86;82737.75;5048407;28;20060;-68
2023/05/14 08:04:06;;;;;;;21.05;11.60;;;;;;;-146.27;99.16;82763.88;5038461;28;20021;-69
2023/05/14 08:06:32;;;;;;;23.55;10.85;;;;;;;-146.27;97.68;82725.69;5044695;28;20473;-71
2023/05/14 08:08:57;;;;;;;23.05;11.20;;;;;;;-146.27;98.17;82731.72;5044663;28;20604;-71
2023/05/14 08:11:22;;;;;;;20.10;9.77;;;;;;;-146.27;99.14;82715.66;5040539;28;20048;-69
2023/05/14 08:13:48;;;;;;;16.35;9.93;;;;;;;-146.27;99.25;82717.66;5039431;28;20028;-70
2023/05/14 08:16:13;;;;;;;18.10;10.02;;;;;;;-146.27;97.46;82675.47;5047278;28;20029;-70
2023/05/14 08:18:39;;;;;;;21.38;9.80;;;;;;;-146.27;96.78;82683.50;5042519;28;20300;-69
2023/05/14 08:21:04;;;;;;;18.25;9.63;;;;;;;-146.27;95.06;82635.28;5043037;28;20025;-70
2023/05/14 08:23:30;;;;;;;19.00;9.95;;;;;;;-146.27;98.63;82645.34;5037114;28;20029;-70
2023/05/14 08:25:55;;;;;;;16.98;9.25;;;;;;;-146.27;97.25;82649.34;5036500;28;20029;-70
2023/05/14 08:28:21;;;;;;;20.67;8.27;;;;;;;-146.27;96.49;82585.06;5039437;28;20492;-69
2023/05/14 08:30:46;;;;;;;20.02;8.35;;;;;;;-146.27;94.86;82569.00;5041289;28;20058;-69
2023/05/14 08:33:13;;;;;;;15.55;8.00;;;;;;;-146.27;93.86;82556.94;5039805;28;20095;-69
2023/05/14 08:35:38;;;;;;;18.85;7.28;;;;;;;-146.27;91.55;82476.59;5041421;28;20037;-69
2023/05/14 08:38:03;;;;;;;16.35;7.10;;;;;;;-146.27;90.71;82492.66;5040915;28;20025;-69
2023/05/14 08:40:29;;;;;;;16.88;7.10;;;;;;;-146.27;89.56;82424.38;5046504;28;20021;-70
2023/05/14 08:42:56;;;;;;;17.77;7.40;;;;;;;-146.27;88.13;82428.38;5047352;28;20029;-70
2023/05/14 08:45:27;;;;;;;15.68;7.75;;;;;;;-146.27;91.27;82416.31;5043279;28;20451;-70
2023/05/14 08:47:55;;;;;;;14.40;7.95;;;;;;;-146.27;89.20;82394.22;5032203;28;20035;-70
2023/05/14 08:50:21;;;;;;;17.98;7.45;;;;;;;-146.27;85.94;82331.97;5049465;28;20043;-69
2023/05/14 08:52:47;;;;;;;17.42;8.50;;;;;;;-146.27;87.03;82321.91;5036189;28;20031;-70
2023/05/14 08:55:13;;;;;;;15.88;7.90;;;;;;;-146.27;87.82;82319.91;5033458;28;20037;-70
2023/05/14 08:57:39;;;;;;;19.20;7.50;;;;;;;-146.27;86.35;82317.91;5047027;28;20021;-70
2023/05/14 09:00:10;;;;;;;16.38;7.60;;;;;;;-146.27;86.61;82291.78;5050112;28;20488;-70
2023/05/14 09:02:36;;;;;;;17.65;7.50;;;;;;;-146.27;85.75;82217.47;5036034;28;20025;-70
2023/05/14 09:05:02;;;;;;;19.33;8.25;;;;;;;-146.27;85.11;82235.53;5042465;28;20036;-70
2023/05/14 09:07:28;;;;;;;16.42;7.88;;;;;;;-146.27;81.90;82217.47;5042829;28;20033;-71
2023/05/14 09:09:54;;;;;;;15.75;7.38;;;;;;;-146.27;82.47;82187.31;5043682;28;20397;-71
2023/05/14 09:12:20;;;;;;;16.48;6.97;;;;;;;-146.27;82.88;82215.44;5051305;28;20541;-71
2023/05/14 09:14:46;;;;;;;16.35;6.68;;;;;;;-146.27;80.07;82231.53;5042842;28;20426;-71
2023/05/14 09:17:12;;;;;;;15.80;6.55;;;;;;;-146.27;81.05;82245.59;5038874;28;20470;-71
2023/05/14 09:19:41;;;;;;;11.45;5.57;;;;;;;-146.27;82.77;82197.38;5040003;28;20024;-69
2023/05/14 09:22:12;;;;;;;14.98;7.35;;;;;;;-146.27;83.75;82203.41;5042861;28;20041;-69
2023/05/14 09:24:38;;;;;;;18.58;6.97;;;;;;;-146.27;82.98;82123.06;5048312;28;20029;-69
2023/05/14 09:27:05;;;;;;;14.00;5.82;;;;;;;-146.27;80.37;82121.03;5050706;28;20028;-69
2023/05/14 09:29:31;;;;;;;17.90;5.40;;;;;;;-146.27;79.96;82102.97;5050576;28;20028;-70
2023/05/14 09:31:58;;;;;;;20.63;6.20;;;;;;;-146.27;80.02;82111.00;5052086;28;20112;-72
2023/05/14 09:34:25;;;;;;;15.57;6.03;;;;;;;-146.27;79.33;82143.13;5053990;28;20072;-71
2023/05/14 09:37:02;;;;;;;10.98;5.53;;;;;;;-146.27;79.14;82151.16;5035569;28;20100;-66
2023/05/14 09:39:28;;;;;;;12.30;5.32;;;;;;;-146.27;79.61;82145.16;5045107;28;20120;-70
2023/05/14 09:41:55;;;;;;;12.63;5.85;;;;;;;-146.27;78.31;82135.09;5030230;28;20435;-71
2023/05/14 09:44:20;;;;;;;12.75;6.03;;;;;;;-146.27;79.43;82115.00;5031968;28;20112;-70
2023/05/14 09:46:46;;;;;;;12.52;6.15;;;;;;;-146.27;79.04;82159.22;5035246;28;20181;-69
2023/05/14 09:49:12;;;;;;;15.80;6.47;;;;;;;-146.27;79.93;82094.94;5038051;28;20539;-71
2023/05/14 09:51:37;;;;;;;16.20;5.57;;;;;;;-146.27;78.95;82137.13;5044148;28;20055;-71
2023/05/14 09:54:04;;;;;;;16.83;6.07;;;;;;;-146.27;79.58;82100.97;5043416;28;20055;-71
2023/05/14 09:56:31;;;;;;;18.83;7.32;;;;;;;-146.27;80.22;82050.75;5037153;28;20039;-70
2023/05/14 09:58:57;;;;;;;15.35;5.40;;;;;;;-146.27;78.64;82054.75;5042430;28;20358;-69
2023/05/14 10:01:23;;;;;;;14.55;6.88;;;;;;;-146.27;78.05;82050.75;5045931;28;20033;-70
2023/05/14 10:03:51;;;;;;;14.75;6.20;;;;;;;-146.27;79.04;82028.66;5046882;28;20107;-70
2023/05/14 10:06:20;;;;;;;12.13;6.47;;;;;;;-146.27;78.60;81994.50;5064304;28;20029;-69
2023/05/14 10:08:48;;;;;;;13.82;6.53;;;;;;;-146.27;77.53;81966.38;5043264;28;20028;-74
2023/05/14 10:11:26;;;;;;;13.60;5.95;;;;;;;-146.27;77.23;82024.63;5046454;28;20184;-71
2023/05/14 10:14:02;;;;;;;13.77;5.60;;;;;;;-146.27;78.85;81978.44;5047227;28;20072;-69
2023/05/14 10:16:32;;;;;;;17.85;6.93;;;;;;;-146.27;76.62;81952.31;5048055;28;20033;-70
2023/05/14 10:19:06;;;;;;;16.73;6.55;;;;;;;-146.27;76.41;81916.16;5046716;28;20033;-69
2023/05/14 10:21:34;;;;;;;14.20;5.97;;;;;;;-146.27;76.46;81982.44;5043027;28;20028;-71
2023/05/14 10:24:01;;;;;;;23.50;8.00;;;;;;;-146.27;76.71;81958.34;5041405;28;20032;-72
2023/05/14 10:26:27;;;;;;;21.10;6.20;;;;;;;-146.27;77.37;81954.31;5044505;28;20047;-71
2023/05/14 10:28:53;;;;;;;18.95;6.90;;;;;;;-146.27;75.68;81974.41;5040443;28;20429;-73
2023/05/14 10:31:22;;;;;;;15.73;6.30;;;;;;;-146.27;76.85;81908.13;5042959;28;20021;-70
2023/05/14 10:33:49;;;;;;;11.30;6.07;;;;;;;-146.27;76.79;81908.13;5046484;28;20498;-72
2023/05/14 10:36:19;;;;;;;20.30;7.10;;;;;;;-146.27;77.26;81865.94;5040290;28;20481;-73
2023/05/14 10:38:45;;;;;;;13.07;5.93;;;;;;;-146.27;78.65;81783.59;5045862;28;20485;-70
2023/05/14 10:41:15;;;;;;;16.13;6.40;;;;;;;-146.27;75.45;81813.72;5044556;28;20032;-72
2023/05/14 10:43:41;;;;;;;14.55;5.65;;;;;;;-146.27;74.38;81749.47;5041884;28;20052;-72
2023/05/14 10:46:08;;;;;;;19.42;5.70;;;;;;;-146.27;75.28;81725.34;5041827;28;20070;-72
2023/05/14 10:48:35;;;;;;;11.88;5.63;;;;;;;-146.27;73.85;81641.00;5048188;28;20028;-72
2023/05/14 10:51:03;;;;;;;15.77;6.38;;;;;;;-146.27;73.07;81685.19;5046971;28;20032;-72
2023/05/14 10:53:33;;;;;;;15.50;5.65;;;;;;;-146.27;72.35;81715.31;5046604;28;20028;-72
2023/05/14 10:56:10;;;;;;;14.98;5.60;;;;;;;-146.27;72.34;81705.28;5047755;28;20043;-71